Eastbourne, New Zealand
Current Conditions -  °F | °C
As of 4:00 PM on Saturday 22 Nov 2014 (Local Time) from NZWN Reporting Station
Overcast Overcast  
Wind Chill: 63°   Ceiling: 900
Heat Index: 63°   Visibility: 6mi
Dew Point: 57°   Wind: 28mph
Humidity: 82%   Direction: 340°NNW
Pressure: 29.65"   Gusts: 43mph
Location:  41.29°S, 174.89°E
Report Text: NZWN 220300Z AUTO 34024G37KT 9999 OVC009/// 17/14 Q1004 NOSIG
Loading
Personal Weather Stations






























Interactive Weather Map New forecast layout! Learn more

10-Day Weather Forecast

Advertisements
Track Severe Weather on mobile